Time;durP1;ratioP1;P1;durP2;ratioP2;P2;SDS_P1;SDS_P2;PMS_P1;PMS_P2;Temp;Humidity;BMP_temperature;BMP_pressure;BME280_temperature;BME280_humidity;BME280_pressure;Samples;Min_cycle;Max_cycle;Signal;HPM_P1;HPM_P2
2023/05/24 00:02:18;;;;;;;21.17;5.35;;;;;;;7.48;100.00;102392.94;5011214;28;20045;-42
2023/05/24 00:04:44;;;;;;;14.95;5.97;;;;;;;7.76;100.00;102433.25;5012585;28;20042;-49
2023/05/24 00:07:09;;;;;;;13.52;4.85;;;;;;;7.83;100.00;102450.75;5011132;28;20044;-42
2023/05/24 00:09:35;;;;;;;15.13;5.47;;;;;;;7.72;100.00;102440.22;5012280;28;20489;-41
2023/05/24 00:12:00;;;;;;;17.58;5.47;;;;;;;7.78;100.00;102449.84;5011125;28;20465;-45
2023/05/24 00:14:25;;;;;;;12.32;4.93;;;;;;;7.75;100.00;102441.97;5012513;28;20045;-46
2023/05/24 00:16:51;;;;;;;17.50;5.53;;;;;;;7.74;100.00;102437.59;5012437;28;20397;-44
2023/05/24 00:19:17;;;;;;;15.50;5.40;;;;;;;7.63;100.00;102418.31;5011570;28;20112;-42
2023/05/24 00:21:45;;;;;;;16.10;5.22;;;;;;;7.28;100.00;102366.63;5012500;28;20460;-42
2023/05/24 00:24:11;;;;;;;20.77;5.85;;;;;;;7.32;100.00;102383.25;5011010;28;20038;-42
2023/05/24 00:26:37;;;;;;;14.65;5.70;;;;;;;7.20;100.00;102377.94;5011124;28;20397;-46
2023/05/24 00:29:02;;;;;;;15.55;5.35;;;;;;;7.18;100.00;102375.28;5012295;28;20049;-44
2023/05/24 00:31:27;;;;;;;13.93;5.45;;;;;;;7.44;100.00;102416.50;5010575;28;20038;-43
2023/05/24 00:33:53;;;;;;;16.00;4.93;;;;;;;7.53;100.00;102434.91;5012040;28;20374;-42
2023/05/24 00:36:18;;;;;;;16.35;5.93;;;;;;;7.51;100.00;102445.34;5012538;28;20405;-46
2023/05/24 00:38:43;;;;;;;13.75;5.55;;;;;;;7.41;100.00;102421.72;5014046;28;20038;-42
2023/05/24 00:41:10;;;;;;;15.70;5.45;;;;;;;7.06;100.00;102374.38;5016151;28;20409;-43
2023/05/24 00:43:36;;;;;;;16.88;5.63;;;;;;;7.22;100.00;102415.47;5015950;28;20034;-41
2023/05/24 00:46:21;;;;;;;15.07;6.55;;;;;;;6.98;100.00;102387.38;5014411;28;20044;-42
2023/05/24 00:48:47;;;;;;;21.48;6.35;;;;;;;7.36;100.00;102451.38;5014791;28;20038;-42
2023/05/24 00:51:13;;;;;;;19.95;5.95;;;;;;;7.33;100.00;102438.25;5016125;28;20470;-41
2023/05/24 00:53:40;;;;;;;15.82;5.45;;;;;;;7.32;100.00;102441.75;4998514;28;20089;-42
2023/05/24 00:56:06;;;;;;;14.40;5.65;;;;;;;7.14;100.00;102407.59;4996628;28;20104;-41
2023/05/24 00:58:32;;;;;;;12.50;5.20;;;;;;;7.27;100.00;102434.72;4997852;28;20059;-42
2023/05/24 01:01:01;;;;;;;14.90;6.32;;;;;;;6.83;100.00;102350.63;5015586;28;20045;-42
2023/05/24 01:03:30;;;;;;;18.75;6.93;;;;;;;7.24;100.00;102432.94;5014409;28;20493;-42
2023/05/24 01:06:00;;;;;;;20.27;7.90;;;;;;;6.87;100.00;102367.25;5015542;28;20124;-42
2023/05/24 01:08:44;;;;;;;16.48;5.85;;;;;;;7.09;100.00;102411.91;5015605;28;20092;-42
2023/05/24 01:11:36;;;;;;;23.00;7.07;;;;;;;6.91;100.00;102369.91;5015711;28;20052;-47
2023/05/24 01:14:22;;;;;;;20.75;6.65;;;;;;;7.25;100.00;102426.84;4996535;28;20026;-45
2023/05/24 01:16:55;;;;;;;21.55;7.60;;;;;;;6.85;100.00;102380.34;5014530;28;20501;-45
2023/05/24 01:19:42;;;;;;;18.77;7.00;;;;;;;7.13;100.00;102434.63;5015297;28;20033;-41
2023/05/24 01:22:26;;;;;;;14.32;5.95;;;;;;;7.08;100.00;102451.19;5015257;28;20501;-44
2023/05/24 01:25:13;;;;;;;20.77;6.10;;;;;;;6.62;100.00;102372.31;5014049;28;20159;-43
2023/05/24 01:27:38;;;;;;;17.13;6.38;;;;;;;6.89;100.00;102421.34;5014779;28;20389;-46
2023/05/24 01:30:04;;;;;;;15.50;5.88;;;;;;;7.01;100.00;102431.03;5012082;28;20049;-41
2023/05/24 01:32:30;;;;;;;21.38;6.30;;;;;;;6.83;100.00;102395.13;4997913;28;20489;-41
2023/05/24 01:34:56;;;;;;;19.80;6.43;;;;;;;7.04;100.00;102424.09;5014960;28;20052;-45
2023/05/24 01:37:21;;;;;;;19.23;6.78;;;;;;;7.03;100.00;102429.31;5014823;28;20473;-40
2023/05/24 01:39:47;;;;;;;20.60;6.95;;;;;;;6.89;100.00;102397.78;5013708;28;20038;-45
2023/05/24 01:42:30;;;;;;;24.60;7.10;;;;;;;6.91;100.00;102411.78;5013252;28;20026;-41
2023/05/24 01:45:15;;;;;;;16.25;5.72;;;;;;;6.69;100.00;102367.97;4997319;28;20084;-42
2023/05/24 01:47:51;;;;;;;15.02;5.53;;;;;;;6.70;100.00;102359.28;5011987;28;20149;-42
2023/05/24 01:50:21;;;;;;;16.27;6.00;;;;;;;6.97;100.00;102413.56;5014101;28;20038;-44
2023/05/24 01:52:48;;;;;;;14.35;5.72;;;;;;;7.06;100.00;102424.13;4996969;28;20025;-44
2023/05/24 01:55:16;;;;;;;19.85;6.25;;;;;;;7.00;100.00;102408.34;5014731;28;20104;-45
2023/05/24 01:57:43;;;;;;;20.13;6.03;;;;;;;6.70;100.00;102361.88;4997021;28;20033;-42
2023/05/24 02:00:10;;;;;;;21.25;6.65;;;;;;;6.99;100.00;102406.59;4996832;28;20066;-41
2023/05/24 02:02:36;;;;;;;15.18;5.95;;;;;;;6.65;100.00;102353.13;5013218;28;20041;-46
2023/05/24 02:05:02;;;;;;;14.23;6.50;;;;;;;6.96;100.00;102417.94;5012149;28;20033;-41
2023/05/24 02:07:28;;;;;;;18.48;6.28;;;;;;;6.93;100.00;102402.19;4996885;28;20069;-42
2023/05/24 02:09:53;;;;;;;18.83;7.88;;;;;;;6.61;100.00;102343.50;4996795;28;20069;-45
2023/05/24 02:12:18;;;;;;;20.40;6.10;;;;;;;6.60;100.00;102350.47;5013316;28;20038;-42
2023/05/24 02:14:44;;;;;;;19.38;6.38;;;;;;;6.60;100.00;102341.75;5013065;28;20030;-41
2023/05/24 02:17:09;;;;;;;25.23;7.07;;;;;;;6.79;100.00;102381.16;5012963;28;20045;-40
2023/05/24 02:19:35;;;;;;;18.58;6.95;;;;;;;6.54;100.00;102326.00;5011014;28;20076;-41
2023/05/24 02:22:02;;;;;;;15.95;6.28;;;;;;;6.98;100.00;102404.84;5013995;28;20124;-46
2023/05/24 02:24:27;;;;;;;22.67;7.28;;;;;;;6.98;100.00;102410.06;5014241;28;20037;-47
2023/05/24 02:26:54;;;;;;;20.08;6.95;;;;;;;6.94;100.00;102406.56;5012811;28;20099;-44
2023/05/24 02:29:21;;;;;;;13.82;6.30;;;;;;;6.92;100.00;102421.38;5014069;28;20030;-43
2023/05/24 02:31:49;;;;;;;25.15;7.13;;;;;;;6.89;100.00;102407.41;4996513;28;20061;-49
2023/05/24 02:34:14;;;;;;;23.15;7.43;;;;;;;6.78;100.00;102381.13;5012482;28;20050;-45
2023/05/24 02:36:41;;;;;;;21.55;7.15;;;;;;;6.87;100.00;102406.50;4996356;28;20037;-44
2023/05/24 02:39:06;;;;;;;18.38;6.53;;;;;;;6.45;100.00;102337.25;5013910;28;20030;-45
2023/05/24 02:41:32;;;;;;;17.75;7.30;;;;;;;6.85;100.00;102416.97;5014120;28;20030;-45
2023/05/24 02:43:57;;;;;;;23.98;7.50;;;;;;;6.84;100.00;102406.47;5013913;28;20123;-42
2023/05/24 02:46:22;;;;;;;21.35;7.00;;;;;;;6.51;100.00;102353.00;5013662;28;20037;-42
2023/05/24 02:48:48;;;;;;;13.07;6.72;;;;;;;6.82;100.00;102409.09;5013405;28;20030;-40
2023/05/24 02:51:13;;;;;;;20.88;6.95;;;;;;;6.80;100.00;102416.03;4994570;28;20045;-47
2023/05/24 02:53:42;;;;;;;22.80;6.88;;;;;;;6.82;100.00;102418.69;5013677;28;20034;-42
2023/05/24 02:56:07;;;;;;;15.35;6.20;;;;;;;6.82;100.00;102426.53;5013409;28;20104;-45
2023/05/24 02:58:33;;;;;;;19.98;7.95;;;;;;;6.72;100.00;102407.25;5012119;28;20033;-42
2023/05/24 03:00:59;;;;;;;20.98;6.88;;;;;;;6.75;100.00;102421.25;5012863;28;20046;-41
2023/05/24 03:03:24;;;;;;;20.13;6.90;;;;;;;6.38;100.00;102352.91;5013122;28;20121;-44
2023/05/24 03:05:49;;;;;;;20.02;6.82;;;;;;;6.75;100.00;102413.41;5013524;28;20053;-44
2023/05/24 03:08:15;;;;;;;24.48;7.30;;;;;;;6.34;100.00;102343.25;5011931;28;20059;-41
2023/05/24 03:10:40;;;;;;;19.00;6.57;;;;;;;6.60;100.00;102392.31;5013355;28;20034;-40
2023/05/24 03:13:06;;;;;;;22.85;7.35;;;;;;;6.68;100.00;102405.50;5012876;28;20037;-41
2023/05/24 03:15:31;;;;;;;22.65;6.93;;;;;;;6.46;100.00;102369.53;5013112;28;20112;-41
2023/05/24 03:17:56;;;;;;;14.35;5.93;;;;;;;6.57;100.00;102386.19;5011904;28;20100;-44
2023/05/24 03:20:23;;;;;;;25.20;7.68;;;;;;;6.56;100.00;102382.72;5012204;28;20128;-41
2023/05/24 03:22:48;;;;;;;24.50;8.18;;;;;;;6.65;100.00;102403.72;5013033;28;20496;-45
2023/05/24 03:25:14;;;;;;;25.73;7.65;;;;;;;6.65;100.00;102401.13;5010321;28;20172;-42
2023/05/24 03:27:39;;;;;;;23.30;7.13;;;;;;;6.55;100.00;102383.56;5013076;28;20497;-45
2023/05/24 03:30:05;;;;;;;17.98;6.30;;;;;;;6.65;100.00;102388.03;5012619;28;20099;-42
2023/05/24 03:32:32;;;;;;;19.95;7.40;;;;;;;6.61;100.00;102382.75;5012952;28;20058;-42
2023/05/24 03:34:59;;;;;;;18.65;6.95;;;;;;;6.22;100.00;102310.91;5012920;28;20060;-41
2023/05/24 03:37:25;;;;;;;16.95;6.88;;;;;;;6.71;100.00;102387.19;5011768;28;20431;-44
2023/05/24 03:39:50;;;;;;;18.85;7.10;;;;;;;6.67;100.00;102388.03;5011679;28;20217;-44
2023/05/24 03:42:15;;;;;;;23.80;8.07;;;;;;;6.26;100.00;102321.41;5012571;28;20108;-48
2023/05/24 03:44:41;;;;;;;20.50;6.80;;;;;;;6.62;100.00;102388.00;5012831;28;20048;-41
2023/05/24 03:47:06;;;;;;;22.73;7.72;;;;;;;6.64;100.00;102388.88;5012633;28;20038;-42
2023/05/24 03:49:31;;;;;;;23.30;7.68;;;;;;;6.64;100.00;102394.13;5012684;28;20346;-42
2023/05/24 03:51:57;;;;;;;19.35;7.13;;;;;;;6.55;100.00;102375.72;5012763;28;20041;-48
2023/05/24 03:54:22;;;;;;;19.52;7.38;;;;;;;6.62;100.00;102388.00;5011443;28;20041;-45
2023/05/24 03:56:47;;;;;;;18.25;7.43;;;;;;;6.34;100.00;102340.66;5012498;28;20525;-46
2023/05/24 03:59:12;;;;;;;22.25;7.93;;;;;;;6.65;100.00;102395.00;5010969;28;20121;-48
2023/05/24 04:01:38;;;;;;;16.95;6.50;;;;;;;6.26;100.00;102324.91;5012225;28;20046;-47
2023/05/24 04:04:03;;;;;;;19.23;6.85;;;;;;;6.36;100.00;102331.97;5012312;28;20038;-42
2023/05/24 04:06:29;;;;;;;17.80;7.00;;;;;;;6.75;100.00;102405.53;5012512;28;20030;-45
2023/05/24 04:08:55;;;;;;;19.20;6.22;;;;;;;6.76;100.00;102399.47;4995066;28;20037;-42
2023/05/24 04:11:22;;;;;;;20.52;6.85;;;;;;;6.75;100.00;102387.22;5012469;28;20038;-43
2023/05/24 04:13:48;;;;;;;16.90;7.00;;;;;;;6.77;100.00;102385.50;5014489;28;20034;-46
2023/05/24 04:16:13;;;;;;;16.50;6.93;;;;;;;6.96;100.00;102411.81;5016128;28;20392;-44
2023/05/24 04:18:38;;;;;;;25.98;8.63;;;;;;;6.95;100.00;102384.75;5016304;28;20030;-40
2023/05/24 04:21:04;;;;;;;25.95;8.35;;;;;;;7.17;100.00;102410.22;5016451;28;20501;-45
2023/05/24 04:23:29;;;;;;;21.83;7.80;;;;;;;7.31;100.00;102415.53;5016423;28;20034;-50
2023/05/24 04:25:55;;;;;;;19.52;7.53;;;;;;;7.45;100.00;102415.59;5016309;28;20040;-43
2023/05/24 04:28:21;;;;;;;21.52;8.05;;;;;;;7.21;100.00;102348.25;5014593;28;20188;-44
2023/05/24 04:30:47;;;;;;;22.45;7.45;;;;;;;7.27;100.00;102336.06;5016465;28;20084;-45
2023/05/24 04:33:13;;;;;;;25.70;7.45;;;;;;;7.85;100.00;102409.72;5016267;28;20030;-41
2023/05/24 04:35:39;;;;;;;23.05;7.68;;;;;;;7.89;100.00;102390.47;5016163;28;20037;-44
2023/05/24 04:38:04;;;;;;;21.17;7.32;;;;;;;7.91;100.00;102359.88;5016188;28;20132;-45
2023/05/24 04:40:30;;;;;;;23.38;7.43;;;;;;;8.03;100.00;102341.56;5016189;28;20038;-41
2023/05/24 04:42:55;;;;;;;21.02;6.53;;;;;;;8.26;100.00;102347.72;5015650;28;20034;-43
2023/05/24 04:45:20;;;;;;;18.27;6.40;;;;;;;8.39;100.00;102339.03;5014563;28;20049;-41
2023/05/24 04:47:46;;;;;;;16.20;6.85;;;;;;;8.49;100.00;102347.78;5015825;28;20029;-47
2023/05/24 04:50:11;;;;;;;19.42;6.28;;;;;;;8.71;100.00;102382.75;5016134;28;20385;-44
2023/05/24 04:52:36;;;;;;;19.73;7.07;;;;;;;8.90;100.00;102400.28;5014310;28;20058;-41
2023/05/24 04:55:03;;;;;;;18.00;6.28;;;;;;;8.95;100.00;102406.38;5015829;28;20042;-43
2023/05/24 04:57:28;;;;;;;29.17;6.53;;;;;;;8.62;100.00;102331.16;4998112;28;20037;-42
2023/05/24 04:59:53;;;;;;;21.05;6.13;;;;;;;8.63;100.00;102337.28;5015554;28;20381;-42
2023/05/24 05:02:19;;;;;;;15.30;6.65;;;;;;;9.01;100.00;102395.88;5008035;28;20046;-41
2023/05/24 05:04:44;;;;;;;18.88;6.78;;;;;;;9.08;100.00;102412.50;5015634;28;20037;-43
2023/05/24 05:07:09;;;;;;;19.35;6.35;;;;;;;9.14;100.00;102399.34;5015840;28;20476;-41
2023/05/24 05:09:35;;;;;;;20.30;6.68;;;;;;;9.26;100.00;102399.31;5015428;28;20038;-42
2023/05/24 05:12:01;;;;;;;20.00;6.75;;;;;;;9.25;100.00;102377.41;5015294;28;20400;-42
2023/05/24 05:14:26;;;;;;;19.27;5.63;;;;;;;9.17;100.00;102345.03;5015498;28;20044;-43
2023/05/24 05:16:52;;;;;;;19.25;6.13;;;;;;;9.54;100.00;102396.59;5013562;28;20041;-42
2023/05/24 05:19:18;;;;;;;17.88;5.85;;;;;;;9.19;100.00;102326.66;5015374;28;20370;-42
2023/05/24 05:21:43;;;;;;;19.85;7.40;;;;;;;9.75;100.00;102405.31;4997983;28;20094;-42
2023/05/24 05:24:08;;;;;;;21.40;6.03;;;;;;;9.97;100.00;102399.94;5014317;28;20030;-46
2023/05/24 05:26:34;;;;;;;24.92;6.72;;;;;;;10.18;100.00;102396.34;5013957;28;20087;-45
2023/05/24 05:28:59;;;;;;;19.38;5.97;;;;;;;10.33;100.00;102380.47;5015156;28;20033;-42
2023/05/24 05:31:25;;;;;;;21.23;6.80;;;;;;;10.39;100.00;102351.44;4995962;28;20397;-46
2023/05/24 05:33:50;;;;;;;17.40;5.97;;;;;;;10.85;100.00;102402.00;4995348;28;20038;-43
2023/05/24 05:36:16;;;;;;;16.02;5.45;;;;;;;11.03;100.00;102407.06;4995442;28;20038;-43
2023/05/24 05:38:41;;;;;;;19.85;5.93;;;;;;;10.94;100.00;102365.03;4978023;28;20058;-41
2023/05/24 05:41:07;;;;;;;20.40;6.15;;;;;;;11.34;100.00;102417.31;4994579;28;20042;-42
2023/05/24 05:43:32;;;;;;;21.60;5.80;;;;;;;11.41;100.00;102429.56;4994577;28;20520;-43
2023/05/24 05:45:59;;;;;;;18.30;5.68;;;;;;;11.12;100.00;102363.97;4995270;28;20030;-44
2023/05/24 05:48:24;;;;;;;14.23;5.50;;;;;;;11.60;100.00;102424.06;4992286;28;20452;-43
2023/05/24 05:50:50;;;;;;;19.77;6.30;;;;;;;11.67;100.00;102428.41;4994902;28;20131;-44
2023/05/24 05:53:15;;;;;;;19.75;5.70;;;;;;;11.36;100.00;102368.09;4995024;28;20092;-42
2023/05/24 05:55:41;;;;;;;21.52;6.22;;;;;;;11.71;100.00;102426.59;4994743;28;20540;-48
2023/05/24 05:58:06;;;;;;;17.25;6.07;;;;;;;11.53;100.00;102360.88;4994912;28;20060;-43
2023/05/24 06:00:32;;;;;;;15.95;5.78;;;;;;;12.04;100.00;102415.63;4995116;28;20437;-43
2023/05/24 06:02:57;;;;;;;11.60;5.18;;;;;;;11.87;100.00;102363.97;4994865;28;20053;-42
2023/05/24 06:05:22;;;;;;;15.82;5.53;;;;;;;12.03;100.00;102362.84;4993736;28;20030;-42
2023/05/24 06:07:48;;;;;;;14.50;6.25;;;;;;;12.16;100.00;102369.72;5014451;28;20345;-43
2023/05/24 06:10:13;;;;;;;20.23;6.90;;;;;;;12.37;100.00;102409.00;4992539;28;20038;-50
2023/05/24 06:12:39;;;;;;;21.63;7.88;;;;;;;12.47;100.00;102437.00;4993767;28;20073;-43
2023/05/24 06:15:06;;;;;;;19.75;7.45;;;;;;;12.11;100.00;102382.13;4995018;28;20038;-43
2023/05/24 06:17:33;;;;;;;21.58;7.85;;;;;;;12.42;100.00;102438.84;4993801;28;20130;-43
2023/05/24 06:19:59;;;;;;;20.08;7.35;;;;;;;12.49;100.00;102448.44;4994921;28;20035;-47
2023/05/24 06:22:26;;;;;;;18.90;7.15;;;;;;;12.46;100.00;102447.63;4994679;28;20042;-43
2023/05/24 06:24:51;;;;;;;18.48;6.30;;;;;;;12.60;100.00;102448.28;4994108;28;20125;-43
2023/05/24 06:27:16;;;;;;;17.23;5.35;;;;;;;12.68;100.00;102455.19;4994317;28;20113;-42
2023/05/24 06:29:42;;;;;;;18.02;5.25;;;;;;;12.69;100.00;102464.88;5007165;28;20204;-42
2023/05/24 06:32:07;;;;;;;15.35;5.05;;;;;;;12.72;100.00;102470.09;4995540;28;20548;-42
2023/05/24 06:34:33;;;;;;;19.27;6.75;;;;;;;12.77;100.00;102462.09;4994535;28;20054;-43
2023/05/24 06:36:58;;;;;;;15.40;4.35;;;;;;;12.53;100.00;102430.75;4993195;28;20046;-43
2023/05/24 06:39:24;;;;;;;12.82;4.30;;;;;;;12.60;100.00;102458.84;4991895;28;20031;-43
2023/05/24 06:41:50;;;;;;;14.35;4.45;;;;;;;12.21;100.00;102402.19;4976537;28;20046;-47
2023/05/24 06:44:15;;;;;;;12.95;4.18;;;;;;;12.80;100.00;102460.28;4993030;28;20109;-43
2023/05/24 06:46:41;;;;;;;13.73;4.20;;;;;;;12.46;100.00;102400.94;4994162;28;20133;-44
2023/05/24 06:49:07;;;;;;;14.70;4.55;;;;;;;12.99;100.00;102445.84;4992880;28;20410;-43
2023/05/24 06:51:33;;;;;;;15.45;4.43;;;;;;;13.29;100.00;102456.81;4993872;28;20062;-47
2023/05/24 06:53:58;;;;;;;14.02;5.13;;;;;;;13.34;100.00;102454.97;4993936;28;20465;-43
2023/05/24 06:56:24;;;;;;;13.25;4.53;;;;;;;13.14;100.00;102396.28;4993042;28;20465;-45
2023/05/24 06:58:49;;;;;;;15.13;3.88;;;;;;;13.27;100.00;102403.97;4992853;28;20031;-45
2023/05/24 07:01:15;;;;;;;12.85;4.13;;;;;;;13.18;100.00;102406.78;4993694;28;20122;-45
2023/05/24 07:03:41;;;;;;;21.75;4.10;;;;;;;13.44;100.00;102469.78;4992347;28;20133;-43
2023/05/24 07:06:08;;;;;;;17.58;4.25;;;;;;;13.36;100.00;102477.00;4993582;28;20463;-42
2023/05/24 07:08:34;;;;;;;11.75;3.67;;;;;;;13.19;100.00;102465.84;4993695;28;20485;-42
2023/05/24 07:10:59;;;;;;;13.80;3.58;;;;;;;13.27;100.00;102479.78;4993817;28;20037;-45
2023/05/24 07:13:25;;;;;;;12.70;4.07;;;;;;;12.92;100.00;102409.00;4992957;28;20042;-43
2023/05/24 07:15:50;;;;;;;15.88;4.22;;;;;;;13.02;100.00;102410.56;4964251;28;20533;-44
2023/05/24 07:18:15;;;;;;;13.20;3.53;;;;;;;13.32;100.00;102419.75;4992403;28;20035;-43
2023/05/24 07:20:41;;;;;;;12.25;3.30;;;;;;;13.29;100.00;102380.13;4990675;28;20041;-46
2023/05/24 07:23:06;;;;;;;11.77;4.68;;;;;;;13.63;100.00;102422.69;4991573;28;20121;-44
2023/05/24 07:25:32;;;;;;;16.70;4.03;;;;;;;13.91;100.00;102480.34;4993465;28;20132;-44
2023/05/24 07:27:59;;;;;;;15.50;4.28;;;;;;;14.12;100.00;102479.03;4991156;28;20065;-44
2023/05/24 07:30:24;;;;;;;16.98;4.22;;;;;;;13.95;100.00;102474.06;4992157;28;20040;-45
2023/05/24 07:32:50;;;;;;;11.77;3.33;;;;;;;14.10;100.00;102481.69;4992809;28;20022;-43
2023/05/24 07:35:16;;;;;;;13.20;3.63;;;;;;;14.29;100.00;102486.59;4991175;28;20046;-43
2023/05/24 07:37:41;;;;;;;12.98;4.35;;;;;;;14.31;100.00;102475.06;4975933;28;20477;-42
2023/05/24 07:40:10;;;;;;;15.15;3.90;;;;;;;14.25;100.00;102474.31;5002412;28;20046;-43
2023/05/24 07:42:38;;;;;;;11.65;3.95;;;;;;;14.39;100.00;102480.25;4993216;28;20057;-42
2023/05/24 07:45:09;;;;;;;12.88;3.92;;;;;;;14.53;100.00;102486.09;4993420;28;20041;-42
2023/05/24 07:47:34;;;;;;;12.77;3.78;;;;;;;14.57;100.00;102478.03;5007726;28;20377;-42
2023/05/24 07:50:00;;;;;;;12.60;4.05;;;;;;;14.85;100.00;102488.00;4991852;28;20036;-45
2023/05/24 07:52:25;;;;;;;10.68;3.53;;;;;;;14.50;100.00;102442.00;4986922;28;20034;-52
2023/05/24 07:54:51;;;;;;;14.10;3.95;;;;;;;15.00;100.00;102483.16;4992728;28;20030;-45
2023/05/24 07:57:17;;;;;;;13.00;3.50;;;;;;;15.13;100.00;102487.28;5001105;28;20054;-42
2023/05/24 07:59:43;;;;;;;12.90;3.97;;;;;;;14.90;100.00;102462.22;4979517;28;20069;-46
2023/05/24 08:02:10;;;;;;;13.75;4.32;;;;;;;15.06;100.00;102485.66;4989055;28;20480;-43
2023/05/24 08:04:36;;;;;;;11.55;3.50;;;;;;;15.92;100.00;102485.16;4984720;28;20057;-44
2023/05/24 08:07:02;;;;;;;14.27;3.97;;;;;;;16.20;100.00;102454.22;4990988;28;20046;-43
2023/05/24 08:09:28;;;;;;;12.43;3.92;;;;;;;17.62;100.00;102503.72;4974188;28;20043;-43
2023/05/24 08:11:55;;;;;;;9.95;3.13;;;;;;;17.78;100.00;102467.59;4969982;28;20490;-43
2023/05/24 08:14:21;;;;;;;12.85;3.83;;;;;;;17.26;100.00;102468.53;4956439;28;20030;-45
2023/05/24 08:16:46;;;;;;;10.35;3.30;;;;;;;17.78;100.00;102407.19;4990197;28;20379;-44
2023/05/24 08:19:11;;;;;;;10.50;2.90;;;;;;;18.84;100.00;102515.03;4991231;28;20397;-46
2023/05/24 08:21:36;;;;;;;12.30;4.43;;;;;;;17.97;100.00;102493.53;4989759;28;20397;-49
2023/05/24 08:24:02;;;;;;;10.50;3.88;;;;;;;17.96;100.00;102521.09;4989565;28;20477;-43
2023/05/24 08:26:27;;;;;;;10.90;3.30;;;;;;;17.89;100.00;102508.06;4991168;28;20030;-43
2023/05/24 08:28:53;;;;;;;14.15;3.75;;;;;;;18.14;100.00;102511.53;4990077;28;20039;-43
2023/05/24 08:31:19;;;;;;;15.68;4.03;;;;;;;17.98;100.00;102526.34;4991349;28;20063;-44
2023/05/24 08:33:49;;;;;;;13.50;4.00;;;;;;;17.74;100.00;102527.25;4989287;28;20579;-46
2023/05/24 08:36:15;;;;;;;17.02;4.88;;;;;;;17.85;100.00;102498.41;4989559;28;20588;-44
2023/05/24 08:38:40;;;;;;;12.10;3.65;;;;;;;17.72;100.00;102521.06;4988009;28;20073;-44
2023/05/24 08:41:07;;;;;;;12.40;3.85;;;;;;;17.63;100.00;102508.13;4971809;28;20077;-43
2023/05/24 08:43:32;;;;;;;9.52;3.65;;;;;;;17.32;100.00;102509.13;4990223;28;20042;-44
2023/05/24 08:45:58;;;;;;;10.60;3.72;;;;;;;17.23;100.00;102440.25;4973384;28;20034;-48
2023/05/24 08:48:24;;;;;;;12.65;4.25;;;;;;;18.38;100.00;102491.97;4990393;28;20113;-44
2023/05/24 08:50:49;;;;;;;12.85;4.20;;;;;;;18.42;100.00;102504.22;4973370;28;20054;-45
2023/05/24 08:53:15;;;;;;;11.75;3.58;;;;;;;18.51;100.00;102452.38;4973746;28;20043;-44
2023/05/24 08:55:42;;;;;;;13.23;3.05;;;;;;;19.03;100.00;102437.78;4973436;28;20530;-49
2023/05/24 08:58:08;;;;;;;15.90;3.60;;;;;;;19.48;100.00;102504.38;4991424;28;20038;-43
2023/05/24 09:00:33;;;;;;;11.68;3.30;;;;;;;19.70;100.00;102525.69;4994833;28;20129;-43
2023/05/24 09:03:00;;;;;;;12.30;3.47;;;;;;;20.77;100.00;102520.72;4994743;28;20114;-43
2023/05/24 09:05:26;;;;;;;15.05;3.97;;;;;;;20.54;100.00;102527.16;4977279;28;20089;-43
2023/05/24 09:07:51;;;;;;;10.85;3.25;;;;;;;20.08;100.00;102532.88;4993174;28;20034;-45
2023/05/24 09:10:20;;;;;;;14.07;4.05;;;;;;;19.77;100.00;102525.34;4960896;28;20054;-44
2023/05/24 09:12:49;;;;;;;9.55;3.40;;;;;;;18.91;100.00;102497.00;4994413;28;20039;-45
2023/05/24 09:15:14;;;;;;;9.82;3.47;;;;;;;18.75;100.00;102451.38;4994739;28;20030;-48
2023/05/24 09:17:39;;;;;;;9.95;3.28;;;;;;;19.01;100.00;102517.00;4994641;28;20038;-45
2023/05/24 09:20:07;;;;;;;10.48;3.58;;;;;;;17.99;100.00;102453.47;4994841;28;20448;-44
2023/05/24 09:22:33;;;;;;;12.45;3.30;;;;;;;19.40;100.00;102518.06;4976956;28;20085;-46
2023/05/24 09:25:03;;;;;;;7.60;2.88;;;;;;;19.61;100.00;102509.09;4994081;28;20077;-45
2023/05/24 09:27:31;;;;;;;9.20;3.03;;;;;;;20.04;100.00;102492.03;4976810;28;20039;-43
2023/05/24 09:29:56;;;;;;;14.07;4.53;;;;;;;20.66;100.00;102509.66;4993842;28;20089;-43
2023/05/24 09:32:23;;;;;;;15.40;3.30;;;;;;;20.63;100.00;102451.81;4993760;28;20042;-44
2023/05/24 09:34:53;;;;;;;12.35;3.58;;;;;;;21.08;100.00;102469.22;4975391;28;20060;-42
2023/05/24 09:37:21;;;;;;;19.07;4.00;;;;;;;21.14;100.00;102515.31;4993794;28;20064;-43
2023/05/24 09:39:47;;;;;;;9.90;3.05;;;;;;;21.41;100.00;102518.41;4976885;28;20281;-44
2023/05/24 09:42:19;;;;;;;9.52;3.53;;;;;;;21.56;100.00;102520.31;4993476;28;20092;-41
2023/05/24 09:44:46;;;;;;;14.43;4.07;;;;;;;21.05;100.00;102496.13;4992561;28;20629;-45
2023/05/24 09:47:12;;;;;;;11.00;3.70;;;;;;;21.41;100.00;102510.38;4992563;28;20030;-44
2023/05/24 09:49:37;;;;;;;9.70;4.13;;;;;;;21.73;100.00;102497.97;4993276;28;20035;-44
2023/05/24 09:52:03;;;;;;;11.05;3.95;;;;;;;20.83;100.00;102452.63;4993576;28;20037;-46
2023/05/24 09:54:31;;;;;;;12.50;4.13;;;;;;;21.06;100.00;102500.53;4993760;28;20539;-43
2023/05/24 09:57:00;;;;;;;12.98;3.25;;;;;;;19.89;100.00;102441.97;4993374;28;20070;-43
2023/05/24 09:59:26;;;;;;;10.07;3.65;;;;;;;20.10;100.00;102488.22;4993577;28;20493;-44
2023/05/24 10:01:56;;;;;;;10.38;3.05;;;;;;;20.30;100.00;102432.03;4975988;28;20050;-44
2023/05/24 10:04:31;;;;;;;13.95;3.70;;;;;;;20.30;100.00;102472.16;4975973;28;20038;-44
2023/05/24 10:06:57;;;;;;;9.73;3.08;;;;;;;21.03;100.00;102439.97;4975874;28;20501;-44
2023/05/24 10:09:22;;;;;;;8.10;2.70;;;;;;;21.74;100.00;102489.88;4993108;28;20069;-44
2023/05/24 10:11:48;;;;;;;10.07;3.42;;;;;;;22.62;100.00;102482.31;4992857;28;20477;-45
2023/05/24 10:14:14;;;;;;;9.77;3.88;;;;;;;22.06;100.00;102433.66;4993454;28;20512;-43
2023/05/24 10:16:39;;;;;;;11.35;3.97;;;;;;;21.81;100.00;102434.97;4959613;28;20042;-43
2023/05/24 10:19:06;;;;;;;9.07;3.25;;;;;;;21.29;100.00;102497.59;4975722;28;20043;-44
2023/05/24 10:21:31;;;;;;;10.27;3.72;;;;;;;20.91;100.00;102490.59;4975939;28;20395;-47
2023/05/24 10:23:58;;;;;;;10.20;2.95;;;;;;;21.38;100.00;102431.97;4975745;28;20038;-43
2023/05/24 10:26:27;;;;;;;12.90;3.15;;;;;;;21.83;100.00;102478.63;4975983;28;20149;-44
2023/05/24 10:29:00;;;;;;;11.70;3.78;;;;;;;22.16;100.00;102433.06;4993051;28;20125;-48
2023/05/24 10:31:31;;;;;;;11.05;3.47;;;;;;;21.29;100.00;102486.88;4974810;28;20077;-42
2023/05/24 10:33:57;;;;;;;;;;;;;;;21.28;100.00;102499.41;4975581;28;20448;-46
2023/05/24 10:36:24;;;;;;;8.73;2.88;;;;;;;21.30;100.00;102440.41;4975448;28;19921;-44
2023/05/24 10:38:51;;;;;;;10.45;3.53;;;;;;;22.11;100.00;102477.19;4993126;28;20121;-44
2023/05/24 10:41:16;;;;;;;10.07;2.90;;;;;;;22.50;100.00;102491.09;4975603;28;20030;-43
2023/05/24 10:43:44;;;;;;;9.30;3.30;;;;;;;22.81;100.00;102484.84;4975564;28;20040;-44
2023/05/24 10:46:10;;;;;;;12.98;3.53;;;;;;;22.24;100.00;102491.66;4975206;28;20144;-44
2023/05/24 10:48:37;;;;;;;12.48;2.90;;;;;;;22.05;100.00;102493.59;4975395;28;20054;-44
2023/05/24 10:51:33;;;;;;;14.93;4.20;;;;;;;22.28;100.00;102494.09;4975346;28;20026;-44
2023/05/24 10:54:16;;;;;;;8.32;3.38;;;;;;;22.80;100.00;102483.97;4992483;28;20030;-44
2023/05/24 10:56:43;;;;;;;5.53;2.45;;;;;;;23.31;100.00;102481.88;4992332;28;20042;-45
2023/05/24 10:59:21;;;;;;;7.05;3.15;;;;;;;23.08;100.00;102485.06;4992630;28;20038;-45
2023/05/24 11:01:53;;;;;;;9.27;2.95;;;;;;;23.58;100.00;102465.97;4992210;28;20161;-46
2023/05/24 11:04:19;;;;;;;8.35;3.25;;;;;;;22.89;98.79;102479.91;4992188;28;20141;-43
2023/05/24 11:06:51;;;;;;;9.57;2.97;;;;;;;21.97;100.00;102432.38;4992284;28;20135;-44
2023/05/24 11:09:19;;;;;;;14.15;3.50;;;;;;;20.99;100.00;102485.72;4975188;28;20099;-46
2023/05/24 11:11:46;;;;;;;10.20;3.40;;;;;;;21.30;100.00;102475.25;4992317;28;20117;-44
2023/05/24 11:14:12;;;;;;;9.75;3.20;;;;;;;21.59;100.00;102509.44;4992222;28;20492;-43